createdAt,value
2019-04-28T00:02:08.429Z,4.10
2019-04-28T00:04:41.542Z,4.25
2019-04-28T00:07:11.944Z,4.40
2019-04-28T00:09:41.870Z,3.65
2019-04-28T00:12:11.612Z,3.85
2019-04-28T00:14:41.881Z,4.60
2019-04-28T00:17:11.457Z,4.08
2019-04-28T00:19:40.985Z,3.50
2019-04-28T00:22:26.569Z,4.28
2019-04-28T00:25:21.494Z,3.92
2019-04-28T00:27:51.598Z,4.42
2019-04-28T00:30:21.753Z,4.08
2019-04-28T00:35:21.515Z,3.75
2019-04-28T00:37:52.394Z,4.75
2019-04-28T00:40:21.825Z,4.78
2019-04-28T00:42:51.267Z,4.40
2019-04-28T00:45:21.526Z,4.62
2019-04-28T00:47:51.089Z,4.15
2019-04-28T00:50:21.682Z,4.70
2019-04-28T00:52:51.836Z,4.15
2019-04-28T00:57:50.934Z,4.83
2019-04-28T01:00:23.135Z,4.97
2019-04-28T01:02:52.561Z,5.45
2019-04-28T01:05:21.732Z,4.90
2019-04-28T01:07:51.166Z,4.65
2019-04-28T01:10:21.636Z,3.85
2019-04-28T01:12:51.046Z,4.95
2019-04-28T01:15:31.769Z,4.97
2019-04-28T01:18:08.150Z,5.47
2019-04-28T01:20:37.243Z,6.05
2019-04-28T01:23:06.601Z,4.80
2019-04-28T01:25:35.940Z,6.13
2019-04-28T01:28:05.130Z,5.60
2019-04-28T01:30:53.864Z,5.58
2019-04-28T01:33:32.863Z,4.00
2019-04-28T01:36:02.365Z,5.87
2019-04-28T01:38:31.746Z,6.33
2019-04-28T01:41:01.562Z,5.27
2019-04-28T01:46:00.671Z,6.58
2019-04-28T01:48:31.513Z,7.40
2019-04-28T01:51:00.926Z,8.50
2019-04-28T01:53:30.847Z,7.55
2019-04-28T01:56:00.383Z,6.45
2019-04-28T01:58:29.834Z,6.78
2019-04-28T02:00:59.608Z,8.10
2019-04-28T02:03:30.788Z,8.40
2019-04-28T02:06:00.256Z,7.25
2019-04-28T02:08:30.261Z,6.80
2019-04-28T02:11:00.228Z,7.85
2019-04-28T02:13:29.959Z,8.60
2019-04-28T02:16:00.083Z,9.43
2019-04-28T02:21:15.557Z,9.25
2019-04-28T02:23:45.369Z,9.88
2019-04-28T02:26:14.698Z,9.90
2019-04-28T02:28:43.999Z,8.40
2019-04-28T02:31:13.256Z,8.87
2019-04-28T02:33:42.540Z,9.33
2019-04-28T02:36:12.410Z,10.27
2019-04-28T02:38:41.802Z,9.30
2019-04-28T02:41:11.169Z,8.33
2019-04-28T02:43:41.044Z,8.05
2019-04-28T02:46:12.216Z,7.33
2019-04-28T02:48:41.486Z,8.25
2019-04-28T02:51:25.911Z,9.70
2019-04-28T02:53:55.158Z,9.35
2019-04-28T02:56:24.653Z,7.97
2019-04-28T02:58:53.935Z,7.58
2019-04-28T03:01:26.605Z,9.90
2019-04-28T03:03:54.146Z,11.55
2019-04-28T03:06:23.323Z,8.33
2019-04-28T03:08:52.637Z,10.82
2019-04-28T03:11:22.391Z,10.60
2019-04-28T03:13:51.673Z,9.98
2019-04-28T03:16:23.068Z,9.90
2019-04-28T03:18:51.850Z,9.05
2019-04-28T03:21:24.143Z,10.57
2019-04-28T03:23:56.402Z,9.30
2019-04-28T03:26:41.421Z,12.03
2019-04-28T03:29:30.475Z,9.90
2019-04-28T03:32:25.372Z,10.35
2019-04-28T03:34:44.250Z,11.10
2019-04-28T03:37:13.892Z,11.45
2019-04-28T03:39:43.351Z,10.13
2019-04-28T03:42:12.624Z,11.95
2019-04-28T03:44:42.127Z,11.13
2019-04-28T03:47:11.402Z,11.70
2019-04-28T03:49:43.352Z,12.17
2019-04-28T03:52:11.625Z,10.05
2019-04-28T03:54:41.254Z,10.00
2019-04-28T03:57:11.433Z,10.72
2019-04-28T03:59:43.499Z,10.03
2019-04-28T04:02:12.064Z,11.48
2019-04-28T04:04:41.611Z,9.73
2019-04-28T04:07:13.908Z,11.85
2019-04-28T04:09:51.481Z,10.88
2019-04-28T04:12:37.530Z,9.48
2019-04-28T04:15:26.418Z,9.03
2019-04-28T04:18:06.151Z,10.08
2019-04-28T04:20:35.986Z,10.60
2019-04-28T04:23:05.472Z,10.82
2019-04-28T04:25:35.128Z,10.55
2019-04-28T04:28:04.580Z,10.85
2019-04-28T04:30:34.162Z,9.65
2019-04-28T04:33:03.929Z,13.75
2019-04-28T04:35:33.529Z,11.08
2019-04-28T04:38:03.193Z,11.22
2019-04-28T04:40:33.128Z,12.65
2019-04-28T04:43:02.715Z,11.30
2019-04-28T04:45:32.446Z,12.93
2019-04-28T04:48:01.958Z,12.60
2019-04-28T04:50:31.627Z,12.13
2019-04-28T04:53:02.776Z,11.85
2019-04-28T04:55:32.587Z,11.10
2019-04-28T04:58:02.184Z,12.20
2019-04-28T05:00:40.502Z,12.78
2019-04-28T05:03:16.256Z,12.93
2019-04-28T05:05:45.565Z,10.20
2019-04-28T05:08:15.671Z,11.63
2019-04-28T05:10:45.108Z,11.78
2019-04-28T05:13:14.479Z,11.28
2019-04-28T05:15:43.935Z,10.70
2019-04-28T05:18:13.669Z,11.18
2019-04-28T05:20:42.996Z,10.68
2019-04-28T05:23:22.262Z,8.27
2019-04-28T05:25:51.666Z,11.30
2019-04-28T05:28:21.039Z,12.60
2019-04-28T05:30:50.683Z,10.67
2019-04-28T05:33:33.440Z,13.95
2019-04-28T05:36:02.978Z,11.35
2019-04-28T05:38:31.075Z,15.20
2019-04-28T05:41:02.676Z,14.10
2019-04-28T05:43:31.538Z,15.43
2019-04-28T05:46:00.983Z,16.33
2019-04-28T05:48:55.494Z,15.72
2019-04-28T05:51:26.654Z,14.40
2019-04-28T05:54:27.441Z,16.05
2019-04-28T05:57:31.339Z,17.05
2019-04-28T06:00:14.955Z,15.50
2019-04-28T06:02:55.936Z,18.42
2019-04-28T06:05:17.164Z,17.27
2019-04-28T06:07:54.791Z,15.13
2019-04-28T06:10:24.786Z,15.98
2019-04-28T06:12:53.989Z,18.37
2019-04-28T06:15:23.239Z,16.10
2019-04-28T06:17:52.586Z,19.70
2019-04-28T06:20:21.794Z,14.87
2019-04-28T06:22:51.196Z,18.95
2019-04-28T06:25:22.415Z,19.15
2019-04-28T06:27:51.971Z,17.42
2019-04-28T06:30:21.298Z,13.30
2019-04-28T06:32:50.873Z,14.13
2019-04-28T06:35:21.716Z,17.25
2019-04-28T06:37:51.230Z,18.12
2019-04-28T06:40:20.486Z,16.65
2019-04-28T06:42:49.983Z,19.87
2019-04-28T06:45:19.409Z,18.37
2019-04-28T06:47:48.899Z,16.77
2019-04-28T06:50:18.227Z,13.48
2019-04-28T06:52:47.610Z,12.77
2019-04-28T06:55:17.109Z,14.80
2019-04-28T06:57:46.644Z,15.55
2019-04-28T07:00:17.145Z,12.37
2019-04-28T07:02:46.807Z,15.60
2019-04-28T07:05:16.289Z,15.88
2019-04-28T07:07:45.793Z,14.07
2019-04-28T07:10:18.124Z,13.98
2019-04-28T07:12:48.460Z,14.30
2019-04-28T07:15:17.882Z,14.63
2019-04-28T07:17:47.286Z,16.55
2019-04-28T07:20:41.444Z,14.28
2019-04-28T07:23:10.896Z,12.88
2019-04-28T07:25:40.298Z,13.00
2019-04-28T07:28:09.598Z,11.63
2019-04-28T07:30:40.775Z,10.10
2019-04-28T07:33:10.034Z,9.48
2019-04-28T07:35:39.189Z,12.03
2019-04-28T07:38:08.563Z,12.43
2019-04-28T07:40:37.735Z,10.73
2019-04-28T07:43:07.061Z,14.33
2019-04-28T07:45:36.676Z,12.50
2019-04-28T07:48:05.863Z,13.62
2019-04-28T07:50:35.224Z,13.48
2019-04-28T07:53:32.895Z,12.13
2019-04-28T07:55:58.013Z,13.50
2019-04-28T07:58:27.591Z,13.75
2019-04-28T08:00:57.055Z,13.60
2019-04-28T08:03:26.530Z,11.63
2019-04-28T08:05:56.129Z,10.95
2019-04-28T08:08:25.923Z,12.47
2019-04-28T08:10:55.511Z,11.30
2019-04-28T08:13:25.550Z,12.23
2019-04-28T08:15:55.123Z,12.68
2019-04-28T08:18:24.530Z,12.00
2019-04-28T08:20:54.318Z,11.00
2019-04-28T08:23:26.150Z,8.68
2019-04-28T08:25:55.357Z,6.58
2019-04-28T08:28:24.733Z,5.83
2019-04-28T08:30:54.069Z,7.25
2019-04-28T08:34:02.255Z,5.60
2019-04-28T08:36:33.297Z,5.37
2019-04-28T08:39:03.204Z,7.53
2019-04-28T08:41:32.346Z,8.38
2019-04-28T08:44:01.669Z,6.80
2019-04-28T08:46:31.175Z,9.27
2019-04-28T08:49:00.461Z,7.12
2019-04-28T08:51:29.531Z,5.73
2019-04-28T08:53:59.149Z,7.33
2019-04-28T08:56:28.446Z,5.95
2019-04-28T08:58:57.731Z,7.30
2019-04-28T09:01:26.977Z,5.90
2019-04-28T09:03:56.756Z,5.53
2019-04-28T09:06:25.926Z,8.40
2019-04-28T09:08:55.244Z,7.40
2019-04-28T09:11:24.549Z,6.47
2019-04-28T09:13:53.731Z,7.00
2019-04-28T09:16:26.146Z,7.65
2019-04-28T09:18:55.345Z,6.08
2019-04-28T09:21:24.592Z,7.35
2019-04-28T09:23:53.700Z,7.08
2019-04-28T09:26:23.008Z,7.40
2019-04-28T09:28:52.120Z,7.15
2019-04-28T09:31:21.351Z,7.42
2019-04-28T09:33:50.495Z,6.67
2019-04-28T09:36:19.688Z,5.75
2019-04-28T09:38:48.981Z,5.12
2019-04-28T09:41:21.833Z,5.10
2019-04-28T09:44:05.138Z,4.15
2019-04-28T09:46:36.667Z,5.90
2019-04-28T09:49:05.935Z,5.10
2019-04-28T09:51:35.010Z,4.95
2019-04-28T09:54:04.143Z,6.15
2019-04-28T09:56:33.352Z,3.87
2019-04-28T09:59:02.517Z,4.30
2019-04-28T10:01:31.631Z,3.27
2019-04-28T10:04:00.760Z,5.22
2019-04-28T10:06:30.719Z,3.12
2019-04-28T10:08:59.955Z,3.37
2019-04-28T10:11:30.577Z,2.93
2019-04-28T10:14:00.034Z,4.15
2019-04-28T10:16:29.648Z,4.58
2019-04-28T10:18:58.737Z,3.92
2019-04-28T10:21:28.015Z,2.95
2019-04-28T10:23:57.164Z,4.75
2019-04-28T10:26:26.625Z,2.67
2019-04-28T10:28:55.705Z,2.30
2019-04-28T10:31:25.086Z,3.27
2019-04-28T10:33:58.325Z,4.03
2019-04-28T10:36:29.910Z,3.83
2019-04-28T10:39:20.376Z,3.42
2019-04-28T10:41:53.409Z,3.30
2019-04-28T10:44:23.454Z,2.33
2019-04-28T10:46:52.887Z,3.60
2019-04-28T10:49:25.133Z,2.92
2019-04-28T10:51:59.643Z,3.17
2019-04-28T10:54:26.994Z,4.42
2019-04-28T10:56:56.430Z,5.05
2019-04-28T10:59:26.073Z,3.35
2019-04-28T11:01:55.796Z,3.42
2019-04-28T11:04:44.968Z,2.85
2019-04-28T11:07:14.967Z,2.45
2019-04-28T11:09:49.194Z,2.55
2019-04-28T11:12:24.156Z,1.87
2019-04-28T11:14:53.530Z,2.47
2019-04-28T11:17:23.467Z,3.00
2019-04-28T11:19:52.828Z,2.95
2019-04-28T11:22:25.036Z,2.93
2019-04-28T11:24:54.370Z,4.15
2019-04-28T11:27:24.416Z,3.30
2019-04-28T11:29:53.769Z,2.90
2019-04-28T11:32:22.959Z,3.50
2019-04-28T11:35:01.608Z,3.10
2019-04-28T11:37:30.961Z,2.58
2019-04-28T11:40:00.131Z,2.60
2019-04-28T11:42:31.803Z,2.55
2019-04-28T11:45:00.835Z,2.33
2019-04-28T11:47:30.081Z,3.00
2019-04-28T11:49:59.509Z,2.52
2019-04-28T11:52:28.835Z,3.58
2019-04-28T11:54:57.983Z,3.10
2019-04-28T11:57:27.184Z,3.47
2019-04-28T11:59:56.447Z,3.75
2019-04-28T12:02:25.682Z,2.97
2019-04-28T12:04:56.541Z,3.67
2019-04-28T12:07:25.711Z,2.92
2019-04-28T12:10:17.929Z,2.80
2019-04-28T12:13:00.260Z,3.30
2019-04-28T12:15:41.179Z,4.60
2019-04-28T12:18:28.311Z,2.77
2019-04-28T12:20:57.489Z,1.95
2019-04-28T12:23:26.705Z,2.95
2019-04-28T12:25:55.942Z,2.80
2019-04-28T12:28:25.259Z,2.40
2019-04-28T12:30:54.611Z,2.33
2019-04-28T12:33:23.802Z,2.57
2019-04-28T12:35:53.178Z,3.92
2019-04-28T12:38:22.478Z,2.67
2019-04-28T12:40:52.870Z,3.00
2019-04-28T12:43:22.072Z,3.15
2019-04-28T12:45:51.710Z,2.67
2019-04-28T12:48:20.863Z,2.17
2019-04-28T12:50:51.715Z,2.15
2019-04-28T12:53:21.448Z,2.35
2019-04-28T12:55:50.726Z,2.42
2019-04-28T12:58:19.940Z,1.70
2019-04-28T13:00:57.757Z,3.22
2019-04-28T13:03:51.395Z,3.10
2019-04-28T13:06:20.764Z,2.70
2019-04-28T13:08:49.908Z,2.53
2019-04-28T13:11:19.255Z,3.10
2019-04-28T13:13:48.324Z,3.77
2019-04-28T13:16:17.455Z,2.90
2019-04-28T13:18:46.672Z,3.08
2019-04-28T13:21:16.042Z,3.70
2019-04-28T13:23:45.233Z,2.40
2019-04-28T13:26:14.419Z,3.05
2019-04-28T13:28:43.869Z,2.55
2019-04-28T13:31:15.711Z,3.50
2019-04-28T13:33:55.923Z,2.67
2019-04-28T13:36:15.760Z,3.50
2019-04-28T13:38:45.017Z,3.37
2019-04-28T13:41:14.245Z,2.73
2019-04-28T13:43:43.485Z,2.73
2019-04-28T13:46:13.052Z,3.83
2019-04-28T13:48:42.758Z,2.70
2019-04-28T13:51:12.018Z,3.37
2019-04-28T13:53:42.874Z,3.60
2019-04-28T13:56:12.128Z,2.52
2019-04-28T13:58:44.770Z,3.00
2019-04-28T14:01:35.995Z,2.65
2019-04-28T14:04:24.574Z,2.58
2019-04-28T14:06:59.854Z,4.10
2019-04-28T14:09:29.090Z,3.25
2019-04-28T14:11:59.939Z,2.57
2019-04-28T14:14:29.099Z,4.00
2019-04-28T14:16:58.313Z,4.12
2019-04-28T14:19:27.333Z,3.20
2019-04-28T14:21:57.567Z,3.37
2019-04-28T14:26:55.097Z,2.10
2019-04-28T14:29:24.580Z,2.75
2019-04-28T14:31:53.660Z,3.40
2019-04-28T14:34:22.852Z,3.08
2019-04-28T14:36:51.995Z,3.52
2019-04-28T14:39:21.273Z,2.83
2019-04-28T14:41:50.762Z,2.23
2019-04-28T14:44:19.953Z,2.92
2019-04-28T14:46:49.114Z,2.10
2019-04-28T14:49:18.390Z,1.98
2019-04-28T14:51:47.428Z,2.15
2019-04-28T14:54:16.934Z,2.08
2019-04-28T14:56:46.268Z,1.92
2019-04-28T14:59:15.514Z,2.07
2019-04-28T15:02:09.979Z,2.17
2019-04-28T15:05:10.481Z,2.50
2019-04-28T15:08:01.557Z,1.82
2019-04-28T15:10:40.051Z,2.37
2019-04-28T15:13:09.495Z,1.87
2019-04-28T15:15:39.059Z,2.87
2019-04-28T15:18:08.238Z,2.65
2019-04-28T15:20:37.453Z,1.85
2019-04-28T15:23:06.586Z,3.43
2019-04-28T15:25:35.647Z,2.92
2019-04-28T15:28:04.750Z,2.30
2019-04-28T15:30:33.925Z,1.65
2019-04-28T15:33:03.280Z,2.10
2019-04-28T15:35:32.520Z,1.98
2019-04-28T15:38:01.778Z,2.60
2019-04-28T15:40:30.952Z,2.37
2019-04-28T15:43:00.249Z,1.75
2019-04-28T15:45:29.252Z,2.27
2019-04-28T15:47:58.304Z,2.55
2019-04-28T15:50:27.471Z,2.15
2019-04-28T15:52:56.638Z,1.55
2019-04-28T15:55:32.800Z,1.77
2019-04-28T15:58:24.278Z,2.22
2019-04-28T16:00:53.478Z,2.20
2019-04-28T16:03:22.629Z,2.30
2019-04-28T16:05:51.651Z,2.00
2019-04-28T16:08:20.813Z,1.50
2019-04-28T16:10:50.213Z,1.57
2019-04-28T16:13:19.449Z,1.40
2019-04-28T16:15:48.763Z,1.70
2019-04-28T16:18:17.961Z,1.37
2019-04-28T16:20:47.261Z,1.43
2019-04-28T16:23:16.468Z,1.03
2019-04-28T16:25:45.668Z,2.30
2019-04-28T16:28:14.938Z,1.47
2019-04-28T16:30:44.129Z,1.00
2019-04-28T16:33:13.267Z,1.75
2019-04-28T16:35:42.369Z,1.57
2019-04-28T16:38:11.455Z,1.47
2019-04-28T16:40:40.601Z,1.65
2019-04-28T16:43:09.708Z,1.57
2019-04-28T16:45:38.787Z,1.77
2019-04-28T16:48:07.946Z,1.07
2019-04-28T16:50:37.266Z,1.52
2019-04-28T16:53:06.861Z,1.80
2019-04-28T16:55:42.728Z,2.37
2019-04-28T16:58:32.912Z,1.57
2019-04-28T17:03:49.335Z,1.85
2019-04-28T17:06:18.511Z,1.62
2019-04-28T17:08:47.547Z,1.20
2019-04-28T17:11:16.539Z,1.30
2019-04-28T17:13:45.702Z,1.70
2019-04-28T17:16:14.883Z,2.27
2019-04-28T17:18:44.039Z,1.77
2019-04-28T17:21:14.809Z,2.05
2019-04-28T17:23:43.906Z,1.27
2019-04-28T17:26:13.309Z,1.20
2019-04-28T17:28:42.734Z,2.37
2019-04-28T17:31:12.985Z,1.27
2019-04-28T17:33:42.158Z,1.35
2019-04-28T17:36:11.426Z,1.00
2019-04-28T17:38:40.531Z,2.30
2019-04-28T17:41:11.893Z,3.60
2019-04-28T17:43:41.070Z,2.12
2019-04-28T17:46:10.458Z,1.80
2019-04-28T17:48:43.082Z,1.63
2019-04-28T17:51:12.359Z,1.45
2019-04-28T17:53:41.663Z,1.85
2019-04-28T17:56:11.103Z,2.97
2019-04-28T17:58:41.292Z,1.55
2019-04-28T18:04:22.962Z,1.45
2019-04-28T18:06:57.560Z,1.42
2019-04-28T18:09:26.899Z,1.62
2019-04-28T18:11:56.094Z,1.53
2019-04-28T18:14:25.291Z,1.40
2019-04-28T18:17:07.990Z,1.82
2019-04-28T18:19:37.102Z,1.80
2019-04-28T18:22:06.334Z,1.42
2019-04-28T18:24:35.662Z,2.02
2019-04-28T18:27:04.905Z,1.90
2019-04-28T18:29:34.194Z,2.53
2019-04-28T18:32:26.999Z,2.03
2019-04-28T18:35:11.115Z,2.02
2019-04-28T18:37:57.909Z,1.52
2019-04-28T18:40:49.372Z,2.55
2019-04-28T18:43:37.828Z,1.85
2019-04-28T18:46:07.040Z,2.67
2019-04-28T18:48:36.297Z,2.50
2019-04-28T18:51:05.560Z,1.98
2019-04-28T18:53:34.971Z,1.70
2019-04-28T18:56:04.303Z,1.72
2019-04-28T18:58:33.459Z,2.20
2019-04-28T19:01:11.986Z,2.17
2019-04-28T19:03:41.210Z,2.42
2019-04-28T19:06:11.611Z,1.72
2019-04-28T19:08:49.458Z,2.10
2019-04-28T19:11:26.353Z,2.17
2019-04-28T19:13:59.291Z,2.47
2019-04-28T19:17:05.561Z,3.02
2019-04-28T19:19:36.080Z,2.20
2019-04-28T19:22:05.434Z,2.05
2019-04-28T19:24:34.890Z,1.50
2019-04-28T19:27:04.337Z,1.90
2019-04-28T19:29:33.715Z,2.37
2019-04-28T19:32:03.199Z,2.83
2019-04-28T19:34:32.327Z,3.05
2019-04-28T19:37:01.835Z,2.17
2019-04-28T19:39:31.743Z,2.17
2019-04-28T19:42:01.383Z,1.98
2019-04-28T19:44:30.597Z,2.75
2019-04-28T19:47:00.070Z,1.98
2019-04-28T19:49:29.219Z,2.02
2019-04-28T19:51:58.612Z,3.00
2019-04-28T19:54:31.576Z,2.53
2019-04-28T19:57:12.091Z,2.10
2019-04-28T19:59:59.077Z,2.95
2019-04-28T20:02:30.866Z,2.58
2019-04-28T20:05:00.131Z,3.05
2019-04-28T20:07:29.510Z,2.87
2019-04-28T20:09:58.916Z,2.58
2019-04-28T20:12:28.584Z,1.90
2019-04-28T20:14:57.929Z,3.98
2019-04-28T20:17:28.118Z,3.50
2019-04-28T20:22:28.204Z,2.25
2019-04-28T20:24:57.579Z,2.90
2019-04-28T20:27:26.874Z,2.40
2019-04-28T20:29:56.127Z,3.57
2019-04-28T20:32:25.450Z,3.07
2019-04-28T20:34:55.944Z,2.90
2019-04-28T20:37:30.550Z,3.08
2019-04-28T20:40:03.879Z,4.20
2019-04-28T20:42:58.452Z,2.80
2019-04-28T20:45:28.021Z,2.45
2019-04-28T20:47:59.713Z,2.98
2019-04-28T20:50:29.253Z,3.65
2019-04-28T20:52:58.562Z,2.62
2019-04-28T20:55:27.899Z,2.90
2019-04-28T20:57:57.242Z,3.20
2019-04-28T21:00:26.900Z,2.83
2019-04-28T21:02:56.106Z,2.75
2019-04-28T21:05:25.658Z,3.13
2019-04-28T21:07:55.123Z,3.17
2019-04-28T21:10:36.821Z,3.77
2019-04-28T21:12:55.496Z,2.77
2019-04-28T21:15:24.624Z,2.83
2019-04-28T21:17:54.459Z,2.52
2019-04-28T21:20:23.753Z,2.65
2019-04-28T21:22:53.006Z,3.17
2019-04-28T21:25:22.167Z,2.50
2019-04-28T21:27:51.424Z,3.37
2019-04-28T21:30:20.562Z,3.12
2019-04-28T21:32:49.791Z,2.58
2019-04-28T21:35:19.061Z,3.27
2019-04-28T21:37:48.258Z,4.37
2019-04-28T21:40:18.536Z,3.20
2019-04-28T21:43:00.609Z,3.85
2019-04-28T21:45:50.385Z,3.55
2019-04-28T21:48:37.905Z,3.12
2019-04-28T21:51:07.292Z,4.15
2019-04-28T21:53:36.909Z,4.65
2019-04-28T21:56:08.304Z,4.53
2019-04-28T21:58:37.552Z,3.42
2019-04-28T22:01:07.698Z,4.63
2019-04-28T22:06:05.376Z,4.45
2019-04-28T22:08:34.721Z,3.15
2019-04-28T22:11:04.272Z,3.90
2019-04-28T22:13:33.409Z,3.35
2019-04-28T22:16:02.582Z,3.58
2019-04-28T22:18:31.795Z,3.00
2019-04-28T22:21:01.023Z,3.90
2019-04-28T22:23:38.155Z,4.00
2019-04-28T22:26:09.397Z,5.00
2019-04-28T22:28:40.001Z,4.17
2019-04-28T22:31:09.427Z,3.10
2019-04-28T22:33:38.702Z,3.77
2019-04-28T22:36:07.705Z,4.43
2019-04-28T22:38:36.734Z,4.72
2019-04-28T22:41:06.071Z,3.95
2019-04-28T22:43:35.243Z,4.40
2019-04-28T22:46:04.431Z,4.70
2019-04-28T22:48:33.612Z,3.47
2019-04-28T22:51:03.100Z,4.85
2019-04-28T22:53:36.693Z,4.62
2019-04-28T22:56:27.875Z,3.47
2019-04-28T22:59:04.626Z,5.65
2019-04-28T23:01:37.534Z,4.25
2019-04-28T23:04:14.480Z,5.08
2019-04-28T23:06:43.981Z,4.40
2019-04-28T23:09:15.654Z,3.08
2019-04-28T23:11:44.806Z,4.83
2019-04-28T23:14:13.956Z,4.33
2019-04-28T23:16:44.112Z,4.08
2019-04-28T23:19:15.133Z,4.35
2019-04-28T23:21:59.821Z,4.33
2019-04-28T23:24:29.053Z,5.47
2019-04-28T23:26:58.204Z,5.58
2019-04-28T23:29:30.489Z,4.50
2019-04-28T23:31:58.174Z,4.05
2019-04-28T23:34:27.505Z,5.10
2019-04-28T23:36:57.111Z,4.80
2019-04-28T23:39:26.242Z,5.12
2019-04-28T23:42:09.640Z,5.72
2019-04-28T23:44:38.925Z,4.72
2019-04-28T23:47:08.166Z,5.45
2019-04-28T23:49:37.429Z,4.93
2019-04-28T23:52:25.716Z,4.90
2019-04-28T23:54:56.947Z,5.85
2019-04-28T23:57:26.063Z,5.85
2019-04-28T23:59:55.176Z,6.28
